Time;durP1;ratioP1;P1;durP2;ratioP2;P2;SDS_P1;SDS_P2;PMS_P1;PMS_P2;Temp;Humidity;BMP_temperature;BMP_pressure;BME280_temperature;BME280_humidity;BME280_pressure;Samples;Min_cycle;Max_cycle;Signal;HPM_P1;HPM_P2
2023/08/04 00:00:56;;;;;;;9.40;2.63;;;16.80;99.90;;;;;;4984096;28;20201;-68
2023/08/04 00:03:24;;;;;;;5.30;2.20;;;16.80;99.90;;;;;;4981512;28;20201;-68
2023/08/04 00:05:51;;;;;;;8.90;2.20;;;16.80;99.90;;;;;;4994503;28;20271;-68
2023/08/04 00:08:17;;;;;;;5.00;1.70;;;16.70;99.90;;;;;;5001637;28;20197;-67
2023/08/04 00:10:44;;;;;;;5.77;2.40;;;16.70;99.90;;;;;;4996143;28;20200;-68
2023/08/04 00:13:11;;;;;;;3.27;1.93;;;16.70;99.90;;;;;;5003374;28;20192;-68
2023/08/04 00:15:39;;;;;;;4.60;1.90;;;16.60;99.90;;;;;;4991661;28;20228;-68
2023/08/04 00:18:06;;;;;;;4.97;2.37;;;16.60;99.90;;;;;;4983022;28;20294;-68
2023/08/04 00:20:34;;;;;;;4.33;1.90;;;16.60;99.90;;;;;;4998146;28;20275;-68
2023/08/04 00:23:01;;;;;;;6.50;2.20;;;16.60;99.90;;;;;;4981166;28;20402;-68
2023/08/04 00:25:27;;;;;;;5.10;2.07;;;16.60;99.90;;;;;;4990533;28;20299;-68
2023/08/04 00:27:54;;;;;;;7.47;2.40;;;16.60;99.90;;;;;;4977085;28;20197;-68
2023/08/04 00:30:21;;;;;;;4.03;2.10;;;16.60;99.90;;;;;;4992758;28;20660;-68
2023/08/04 00:32:48;;;;;;;2.67;2.23;;;16.50;99.90;;;;;;4975706;28;20205;-68
2023/08/04 00:35:15;;;;;;;5.87;2.50;;;16.50;99.90;;;;;;4986153;28;20228;-68
2023/08/04 00:37:43;;;;;;;8.53;2.87;;;16.50;99.90;;;;;;4996048;28;20213;-68
2023/08/04 00:40:10;;;;;;;6.67;2.27;;;16.50;99.90;;;;;;4981078;28;20229;-68
2023/08/04 00:42:37;;;;;;;2.27;1.90;;;16.50;99.90;;;;;;4978290;28;20228;-68
2023/08/04 00:45:05;;;;;;;7.40;2.33;;;16.50;99.90;;;;;;4995992;28;20500;-68
2023/08/04 00:47:35;;;;;;;7.00;3.13;;;16.50;99.90;;;;;;5006426;28;20192;-69
2023/08/04 00:50:03;;;;;;;5.07;2.10;;;16.50;99.90;;;;;;4983309;28;20201;-68
2023/08/04 00:52:31;;;;;;;7.47;2.23;;;16.40;99.90;;;;;;4991351;28;20215;-68
2023/08/04 00:54:59;;;;;;;5.00;2.17;;;16.40;99.90;;;;;;4991848;28;20224;-68
2023/08/04 00:57:27;;;;;;;4.97;2.13;;;16.40;99.90;;;;;;4995446;28;20209;-68
2023/08/04 00:59:56;;;;;;;7.07;1.83;;;16.40;99.90;;;;;;4982748;28;22860;-68
2023/08/04 01:02:23;;;;;;;6.20;2.10;;;16.30;99.90;;;;;;4994823;28;20288;-68
2023/08/04 01:04:50;;;;;;;10.17;2.47;;;16.30;99.90;;;;;;4976477;28;20824;-68
2023/08/04 01:07:23;;;;;;;8.00;2.97;;;16.30;99.90;;;;;;4998360;28;20194;-68
2023/08/04 01:10:02;;;;;;;8.97;2.57;;;16.20;99.90;;;;;;4997970;28;20672;-68
2023/08/04 01:12:37;;;;;;;7.57;2.30;;;16.20;99.90;;;;;;4992348;28;20203;-69
2023/08/04 01:15:07;;;;;;;4.47;2.20;;;16.20;99.90;;;;;;4996598;28;20757;-68
2023/08/04 01:17:35;;;;;;;5.90;2.57;;;16.10;99.90;;;;;;4991548;28;20216;-69
2023/08/04 01:20:04;;;;;;;4.33;2.23;;;16.10;99.90;;;;;;5003039;28;20688;-68
2023/08/04 01:22:34;;;;;;;6.47;2.50;;;16.00;99.90;;;;;;4982034;28;20308;-68
2023/08/04 01:25:01;;;;;;;4.50;2.27;;;16.00;99.90;;;;;;4984588;28;20570;-68
2023/08/04 01:27:32;;;;;;;4.50;2.53;;;15.90;99.90;;;;;;4997562;28;20884;-69
2023/08/04 01:30:02;;;;;;;5.00;2.60;;;15.90;99.90;;;;;;4998952;28;20196;-68
2023/08/04 01:32:29;;;;;;;6.37;2.37;;;15.80;99.90;;;;;;4992503;28;20333;-69
2023/08/04 01:34:59;;;;;;;4.60;2.27;;;15.70;99.90;;;;;;5004228;28;20217;-68
2023/08/04 01:37:25;;;;;;;5.57;2.40;;;15.70;99.90;;;;;;4984963;28;20224;-69
2023/08/04 01:39:54;;;;;;;6.27;2.10;;;15.70;99.90;;;;;;4998474;28;20196;-68
2023/08/04 01:42:21;;;;;;;3.87;2.33;;;15.70;99.90;;;;;;4998023;28;20193;-69
2023/08/04 01:44:48;;;;;;;3.67;2.40;;;15.70;99.90;;;;;;4986026;28;20229;-68
2023/08/04 01:47:15;;;;;;;2.50;2.30;;;15.60;99.90;;;;;;5002679;28;20550;-69
2023/08/04 01:49:42;;;;;;;6.47;2.47;;;15.60;99.90;;;;;;4981608;28;20953;-68
2023/08/04 01:52:09;;;;;;;4.70;2.53;;;15.70;99.90;;;;;;4981274;28;20221;-68
2023/08/04 01:54:36;;;;;;;7.60;2.90;;;15.70;99.90;;;;;;4981768;28;20274;-69
2023/08/04 01:57:04;;;;;;;8.93;2.87;;;15.60;99.90;;;;;;5001197;28;20201;-68
2023/08/04 01:59:31;;;;;;;3.57;3.03;;;15.70;99.90;;;;;;4985295;28;20235;-69
2023/08/04 02:01:58;;;;;;;6.23;2.60;;;15.60;99.90;;;;;;4996840;28;20204;-68
2023/08/04 02:04:25;;;;;;;7.83;2.83;;;15.70;99.90;;;;;;4988787;28;20286;-69
2023/08/04 02:06:52;;;;;;;7.67;2.77;;;15.70;99.90;;;;;;4985362;28;20209;-68
2023/08/04 02:09:19;;;;;;;4.27;2.60;;;15.60;99.90;;;;;;4981295;28;20209;-69
2023/08/04 02:11:46;;;;;;;2.93;2.10;;;15.60;99.90;;;;;;5000013;28;20409;-68
2023/08/04 02:14:14;;;;;;;5.13;2.40;;;15.60;99.90;;;;;;4995969;28;20228;-69
2023/08/04 02:16:41;;;;;;;6.90;2.97;;;15.70;99.90;;;;;;4988139;28;20204;-68
2023/08/04 02:19:10;;;;;;;5.60;2.63;;;15.60;99.90;;;;;;4992573;28;20231;-68
2023/08/04 02:21:37;;;;;;;3.80;2.30;;;15.60;99.90;;;;;;4988299;28;20203;-69
2023/08/04 02:24:04;;;;;;;4.53;2.23;;;15.60;99.90;;;;;;4998203;28;20859;-68
2023/08/04 02:26:31;;;;;;;4.97;2.20;;;15.60;99.90;;;;;;5001503;28;20197;-69
2023/08/04 02:28:58;;;;;;;7.73;3.10;;;15.60;99.90;;;;;;4998535;28;20219;-69
2023/08/04 02:31:28;;;;;;;6.97;2.70;;;15.70;99.90;;;;;;4993229;28;20193;-68
2023/08/04 02:33:55;;;;;;;6.77;2.30;;;15.70;99.90;;;;;;5001219;28;20199;-69
2023/08/04 02:36:22;;;;;;;6.70;2.77;;;15.70;99.90;;;;;;4999522;28;20324;-68
2023/08/04 02:38:49;;;;;;;4.57;2.93;;;15.70;99.90;;;;;;4978024;28;20725;-69
2023/08/04 02:41:16;;;;;;;4.87;2.60;;;15.70;99.90;;;;;;4995056;28;20590;-69
2023/08/04 02:43:43;;;;;;;5.20;2.40;;;15.70;99.90;;;;;;4993678;28;20204;-69
2023/08/04 02:46:11;;;;;;;5.43;3.00;;;15.70;99.90;;;;;;5003365;28;20225;-68
2023/08/04 02:48:39;;;;;;;8.23;2.43;;;15.70;99.90;;;;;;5002860;28;20862;-69
2023/08/04 02:51:07;;;;;;;6.57;2.43;;;15.70;99.90;;;;;;4975231;28;20215;-69
2023/08/04 02:53:35;;;;;;;5.33;2.80;;;15.70;99.90;;;;;;4990351;28;20767;-68
2023/08/04 02:56:08;;;;;;;4.80;2.73;;;15.70;99.90;;;;;;4993212;28;20220;-68
2023/08/04 02:58:35;;;;;;;6.63;3.10;;;15.80;99.90;;;;;;5002430;28;20613;-68
2023/08/04 03:01:02;;;;;;;5.60;2.53;;;15.80;99.90;;;;;;5001832;28;20196;-68
2023/08/04 03:03:29;;;;;;;7.63;2.90;;;15.80;99.90;;;;;;4997882;28;20841;-68
2023/08/04 03:05:58;;;;;;;7.67;3.03;;;15.80;99.90;;;;;;4993433;28;20309;-68
2023/08/04 03:08:26;;;;;;;6.37;2.97;;;15.80;99.90;;;;;;4995585;28;20225;-70
2023/08/04 03:10:53;;;;;;;5.73;2.90;;;15.80;99.90;;;;;;4971375;28;20210;-69
2023/08/04 03:13:20;;;;;;;7.27;3.27;;;15.80;99.90;;;;;;4986294;28;20204;-70
2023/08/04 03:15:47;;;;;;;6.97;3.07;;;15.80;99.90;;;;;;4989149;28;20212;-69
2023/08/04 03:18:14;;;;;;;6.47;3.57;;;15.80;99.90;;;;;;4996520;28;20216;-69
2023/08/04 03:20:42;;;;;;;4.77;2.60;;;15.80;99.90;;;;;;4989658;28;20216;-69
2023/08/04 03:23:11;;;;;;;6.20;3.73;;;15.80;99.90;;;;;;4992187;28;20692;-69
2023/08/04 03:25:38;;;;;;;8.70;3.60;;;15.80;99.90;;;;;;4969496;28;20244;-69
2023/08/04 03:28:04;;;;;;;9.53;3.30;;;15.80;99.90;;;;;;4990726;28;20193;-69
2023/08/04 03:30:32;;;;;;;8.63;3.57;;;15.80;99.90;;;;;;4996318;28;20224;-69
2023/08/04 03:32:59;;;;;;;5.73;3.00;;;15.70;99.90;;;;;;5003439;28;20556;-69
2023/08/04 03:35:26;;;;;;;6.87;3.33;;;15.80;99.90;;;;;;5001828;28;20212;-70
2023/08/04 03:37:52;;;;;;;5.37;3.10;;;15.80;99.90;;;;;;4999138;28;20381;-69
2023/08/04 03:40:21;;;;;;;7.90;3.20;;;15.80;99.90;;;;;;4995725;28;20605;-69
2023/08/04 03:42:48;;;;;;;10.70;3.60;;;15.80;99.90;;;;;;4975428;28;20291;-70
2023/08/04 03:45:15;;;;;;;5.53;3.80;;;15.80;99.90;;;;;;4997957;28;20648;-69
2023/08/04 03:47:42;;;;;;;9.37;3.37;;;15.80;99.90;;;;;;4996532;28;20208;-69
2023/08/04 03:50:09;;;;;;;5.17;3.27;;;15.80;99.90;;;;;;4997176;28;20208;-69
2023/08/04 03:52:37;;;;;;;8.73;3.00;;;15.80;99.90;;;;;;4984948;28;20202;-70
2023/08/04 03:55:06;;;;;;;7.30;3.03;;;15.80;99.90;;;;;;4994259;28;20220;-69
2023/08/04 03:57:34;;;;;;;7.93;3.30;;;15.80;99.90;;;;;;4975768;28;20587;-69
2023/08/04 04:00:03;;;;;;;7.37;3.43;;;15.80;99.90;;;;;;4989918;28;20570;-69
2023/08/04 04:02:38;;;;;;;6.07;3.27;;;15.80;99.90;;;;;;4976162;28;20246;-69
2023/08/04 04:05:05;;;;;;;6.80;3.00;;;15.80;99.90;;;;;;4997814;28;20672;-69
2023/08/04 04:07:32;;;;;;;5.70;2.73;;;15.80;99.90;;;;;;4986931;28;20283;-69
2023/08/04 04:09:59;;;;;;;7.40;3.43;;;15.80;99.90;;;;;;5001117;28;20204;-69
2023/08/04 04:12:26;;;;;;;6.07;2.80;;;15.90;99.90;;;;;;4973779;28;20268;-70
2023/08/04 04:14:54;;;;;;;5.33;3.37;;;15.80;99.90;;;;;;4996821;28;20216;-69
2023/08/04 04:17:21;;;;;;;7.43;3.03;;;15.80;99.90;;;;;;4988729;28;20993;-69
2023/08/04 04:19:48;;;;;;;8.57;3.20;;;15.80;99.90;;;;;;5001948;28;20220;-69
2023/08/04 04:22:15;;;;;;;5.53;2.87;;;15.90;99.90;;;;;;4987021;28;20219;-70
2023/08/04 04:24:42;;;;;;;5.50;2.83;;;15.90;99.90;;;;;;4998464;28;20236;-69
2023/08/04 04:27:11;;;;;;;6.70;2.70;;;15.90;99.90;;;;;;4994957;28;20208;-70
2023/08/04 04:29:38;;;;;;;4.27;2.90;;;15.90;99.90;;;;;;4990048;28;20243;-69
2023/08/04 04:32:07;;;;;;;5.07;2.73;;;15.90;99.90;;;;;;5000875;28;20297;-70
2023/08/04 04:34:34;;;;;;;11.20;3.53;;;15.80;99.90;;;;;;5006621;28;20286;-69
2023/08/04 04:37:01;;;;;;;7.67;2.83;;;15.80;99.90;;;;;;4990355;28;20197;-69
2023/08/04 04:39:28;;;;;;;10.33;3.93;;;15.80;99.90;;;;;;4986761;28;20233;-70
2023/08/04 04:41:55;;;;;;;11.20;3.37;;;15.80;99.90;;;;;;5000993;28;20212;-69
2023/08/04 04:44:22;;;;;;;8.57;2.70;;;15.80;99.90;;;;;;4973060;28;20326;-69
2023/08/04 04:46:49;;;;;;;6.27;2.57;;;15.80;99.90;;;;;;5000249;28;20201;-70
2023/08/04 04:49:17;;;;;;;6.03;3.00;;;15.90;99.90;;;;;;4993203;28;20544;-69
2023/08/04 04:51:44;;;;;;;7.20;3.30;;;15.90;99.90;;;;;;4994270;28;20208;-69
2023/08/04 04:54:11;;;;;;;4.70;3.73;;;15.90;99.90;;;;;;4986478;28;20287;-69
2023/08/04 04:56:38;;;;;;;5.40;2.90;;;15.90;99.90;;;;;;4995611;28;20286;-70
2023/08/04 04:59:05;;;;;;;8.53;3.17;;;15.90;99.90;;;;;;4983018;28;20253;-69
2023/08/04 05:01:32;;;;;;;10.37;3.63;;;15.80;99.90;;;;;;4977736;28;20300;-70
2023/08/04 05:03:59;;;;;;;9.13;3.27;;;15.80;99.90;;;;;;4983649;28;20205;-70
2023/08/04 05:06:27;;;;;;;12.40;3.30;;;15.80;99.90;;;;;;4988470;28;20205;-69
2023/08/04 05:08:54;;;;;;;4.60;3.20;;;15.90;99.90;;;;;;4987068;28;20629;-69
2023/08/04 05:11:21;;;;;;;8.00;3.10;;;15.90;99.90;;;;;;4999980;28;20196;-69
2023/08/04 05:13:50;;;;;;;5.13;3.70;;;15.90;99.90;;;;;;5000214;28;20692;-69
2023/08/04 05:16:17;;;;;;;5.73;3.00;;;15.90;99.90;;;;;;4983654;28;20205;-68
2023/08/04 05:18:44;;;;;;;8.07;3.00;;;15.90;99.90;;;;;;4991478;28;20208;-68
2023/08/04 05:21:11;;;;;;;8.23;3.63;;;16.00;99.90;;;;;;5002667;28;20825;-68
2023/08/04 05:23:39;;;;;;;7.30;3.73;;;16.00;99.90;;;;;;4988556;28;20251;-68
2023/08/04 05:26:06;;;;;;;4.53;3.20;;;16.00;99.90;;;;;;4994090;28;20282;-68
2023/08/04 05:28:33;;;;;;;6.90;3.43;;;16.10;99.90;;;;;;4996521;28;20200;-68
2023/08/04 05:31:01;;;;;;;5.20;3.00;;;16.10;99.90;;;;;;4987132;28;20291;-68
2023/08/04 05:33:29;;;;;;;4.40;3.23;;;16.10;99.90;;;;;;4993103;28;21045;-68
2023/08/04 05:35:56;;;;;;;5.50;3.53;;;16.10;99.90;;;;;;5004742;28;20233;-68
2023/08/04 05:38:24;;;;;;;9.47;3.10;;;16.10;99.90;;;;;;4990292;28;20204;-68
2023/08/04 05:40:52;;;;;;;7.93;3.30;;;16.20;99.90;;;;;;4995432;28;20200;-68
2023/08/04 05:43:19;;;;;;;7.70;2.77;;;16.20;99.90;;;;;;4994059;28;20786;-68
2023/08/04 05:45:47;;;;;;;5.30;2.90;;;16.20;99.90;;;;;;5004056;28;20223;-68
2023/08/04 05:48:14;;;;;;;7.27;3.10;;;16.20;99.90;;;;;;4978816;28;20212;-68
2023/08/04 05:50:41;;;;;;;6.30;3.03;;;16.30;99.90;;;;;;4993628;28;20262;-68
2023/08/04 05:53:08;;;;;;;4.23;2.50;;;16.30;99.90;;;;;;4998054;28;20204;-68
2023/08/04 05:55:36;;;;;;;5.63;3.37;;;16.30;99.90;;;;;;4979795;28;20239;-68
2023/08/04 05:58:04;;;;;;;4.70;2.63;;;16.30;99.90;;;;;;4999610;28;20193;-68
2023/08/04 06:00:31;;;;;;;5.77;2.50;;;16.30;99.90;;;;;;4998408;28;20901;-68
2023/08/04 06:02:58;;;;;;;3.70;2.87;;;16.40;99.90;;;;;;4970873;28;20208;-68
2023/08/04 06:05:26;;;;;;;4.07;3.07;;;16.40;99.90;;;;;;4991324;28;20404;-68
2023/08/04 06:07:53;;;;;;;8.23;2.63;;;16.50;99.90;;;;;;4984759;28;20215;-68
2023/08/04 06:10:21;;;;;;;4.70;2.40;;;16.50;99.90;;;;;;4994776;28;21098;-68
2023/08/04 06:12:48;;;;;;;5.90;2.97;;;16.60;99.90;;;;;;4995854;28;20208;-68
2023/08/04 06:15:17;;;;;;;4.63;2.67;;;16.60;99.90;;;;;;4988668;28;20224;-68
2023/08/04 06:17:45;;;;;;;4.73;2.60;;;16.70;99.90;;;;;;5001392;28;20200;-68
2023/08/04 06:20:12;;;;;;;6.43;2.57;;;16.70;99.90;;;;;;4978128;28;23933;-67
2023/08/04 06:22:39;;;;;;;4.03;2.40;;;16.70;99.90;;;;;;4996928;28;20213;-68
2023/08/04 06:25:07;;;;;;;4.33;2.60;;;16.70;99.90;;;;;;4987470;28;20224;-68
2023/08/04 06:27:34;;;;;;;4.33;2.40;;;16.70;99.90;;;;;;4992681;28;20216;-68
2023/08/04 06:30:01;;;;;;;6.10;2.37;;;16.70;99.90;;;;;;4993319;28;20201;-68
2023/08/04 06:32:29;;;;;;;4.70;2.33;;;16.70;99.90;;;;;;5003112;28;20565;-67
2023/08/04 06:34:56;;;;;;;3.03;2.37;;;16.70;99.90;;;;;;4984284;28;20225;-68
2023/08/04 06:37:23;;;;;;;5.03;2.20;;;16.80;99.90;;;;;;4986199;28;20232;-68
2023/08/04 06:39:51;;;;;;;3.60;2.00;;;16.70;99.90;;;;;;4999812;28;21538;-68
2023/08/04 06:42:18;;;;;;;4.73;2.10;;;16.80;99.90;;;;;;4991213;28;20196;-68
2023/08/04 06:44:45;;;;;;;5.40;2.50;;;16.80;99.90;;;;;;5003330;28;20228;-68
2023/08/04 06:47:12;;;;;;;7.50;2.33;;;16.80;99.90;;;;;;4992028;28;21796;-68
2023/08/04 06:49:41;;;;;;;3.73;2.10;;;16.80;99.90;;;;;;4984767;28;20200;-69
2023/08/04 06:52:09;;;;;;;6.77;2.53;;;16.80;99.90;;;;;;4991319;28;21432;-68
2023/08/04 06:54:36;;;;;;;3.87;2.13;;;16.80;99.90;;;;;;4992762;28;20587;-69
2023/08/04 06:57:04;;;;;;;7.07;2.70;;;16.80;99.90;;;;;;4990523;28;20227;-68
2023/08/04 06:59:31;;;;;;;3.90;2.10;;;16.90;99.90;;;;;;4983521;28;20279;-68
2023/08/04 07:01:58;;;;;;;7.47;2.60;;;16.90;99.90;;;;;;4978368;28;20204;-68
2023/08/04 07:04:25;;;;;;;3.20;2.30;;;17.00;99.90;;;;;;4996352;28;20292;-69
2023/08/04 07:06:53;;;;;;;4.03;2.37;;;17.00;99.90;;;;;;4971130;28;21781;-68
2023/08/04 07:09:20;;;;;;;4.17;1.97;;;17.10;99.90;;;;;;4990823;28;20691;-69
2023/08/04 07:11:47;;;;;;;5.37;1.90;;;17.10;99.90;;;;;;4981392;28;20216;-68
2023/08/04 07:14:14;;;;;;;4.33;2.33;;;17.10;99.90;;;;;;4989041;28;20220;-68
2023/08/04 07:16:41;;;;;;;5.47;2.00;;;17.20;99.90;;;;;;4991133;28;20263;-68
2023/08/04 07:19:08;;;;;;;2.93;1.83;;;17.30;99.90;;;;;;5001358;28;20243;-68
2023/08/04 07:21:37;;;;;;;4.07;2.30;;;17.30;99.90;;;;;;4982146;28;20196;-68
2023/08/04 07:24:05;;;;;;;3.60;1.77;;;17.30;99.90;;;;;;4990520;28;20212;-68
2023/08/04 07:26:34;;;;;;;4.33;2.30;;;17.40;99.90;;;;;;4983408;28;20213;-68
2023/08/04 07:29:01;;;;;;;2.63;1.43;;;17.50;99.90;;;;;;4996272;28;20842;-68
2023/08/04 07:31:28;;;;;;;3.93;1.83;;;17.50;99.90;;;;;;4990814;28;20192;-68
2023/08/04 07:33:55;;;;;;;4.37;1.87;;;17.40;99.90;;;;;;5001300;28;20208;-68
2023/08/04 07:36:22;;;;;;;5.10;2.43;;;17.50;99.90;;;;;;4994127;28;20279;-68
2023/08/04 07:38:49;;;;;;;2.47;1.40;;;17.50;99.90;;;;;;4975630;28;20223;-68
2023/08/04 07:41:21;;;;;;;2.63;1.87;;;17.60;99.90;;;;;;4992636;28;20690;-68
2023/08/04 07:43:48;;;;;;;3.57;1.67;;;17.80;99.90;;;;;;4988013;28;20219;-68
2023/08/04 07:46:20;;;;;;;3.97;1.80;;;17.90;99.90;;;;;;4990371;28;20224;-68
2023/08/04 07:48:47;;;;;;;3.37;1.90;;;18.00;99.90;;;;;;4997131;28;20227;-68
2023/08/04 07:51:14;;;;;;;4.37;1.70;;;18.20;99.90;;;;;;4991081;28;20635;-68
2023/08/04 07:53:41;;;;;;;2.97;1.60;;;18.20;99.90;;;;;;4977299;28;20274;-68
2023/08/04 07:56:08;;;;;;;5.07;1.50;;;18.20;99.90;;;;;;4995594;28;20283;-68
2023/08/04 07:58:37;;;;;;;5.17;1.43;;;18.20;99.90;;;;;;4988104;28;20255;-68
2023/08/04 08:01:04;;;;;;;1.93;1.30;;;18.20;99.90;;;;;;4975795;28;20670;-67
2023/08/04 08:03:32;;;;;;;3.00;1.40;;;18.20;99.90;;;;;;4993150;28;20913;-69
2023/08/04 08:05:59;;;;;;;1.53;1.23;;;18.20;99.90;;;;;;4996609;28;20251;-67
2023/08/04 08:08:26;;;;;;;3.33;1.50;;;18.10;99.90;;;;;;4995271;28;20247;-68
2023/08/04 08:10:54;;;;;;;3.77;1.23;;;18.20;99.90;;;;;;4978533;28;20216;-67
2023/08/04 08:13:22;;;;;;;2.57;1.70;;;18.20;99.90;;;;;;4989350;28;20216;-68
2023/08/04 08:15:50;;;;;;;3.53;1.60;;;18.20;99.90;;;;;;4974429;28;20318;-68
2023/08/04 08:18:17;;;;;;;2.80;1.77;;;18.30;99.90;;;;;;4996894;28;20211;-67
2023/08/04 08:20:44;;;;;;;4.07;1.63;;;18.30;99.90;;;;;;4987939;28;20940;-68
2023/08/04 08:23:11;;;;;;;2.27;1.30;;;18.30;99.90;;;;;;4996739;28;20211;-67
2023/08/04 08:25:38;;;;;;;2.77;1.30;;;18.30;99.90;;;;;;4977691;28;20236;-68
2023/08/04 08:28:05;;;;;;;4.73;1.67;;;18.30;99.90;;;;;;4996985;28;20684;-68
2023/08/04 08:30:32;;;;;;;2.93;1.43;;;18.40;99.90;;;;;;4992583;28;20676;-68
2023/08/04 08:33:00;;;;;;;4.30;1.60;;;18.40;99.90;;;;;;4997702;28;20220;-68
2023/08/04 08:35:27;;;;;;;4.77;1.50;;;18.40;99.90;;;;;;4997115;28;20228;-68
2023/08/04 08:37:54;;;;;;;2.23;1.50;;;18.40;99.90;;;;;;4992349;28;20291;-67
2023/08/04 08:40:23;;;;;;;1.60;1.30;;;18.50;99.90;;;;;;4983805;28;20228;-68
2023/08/04 08:42:50;;;;;;;3.40;1.60;;;18.40;99.90;;;;;;4994836;28;20842;-68
2023/08/04 08:45:17;;;;;;;5.57;2.07;;;18.40;99.90;;;;;;4996178;28;20223;-68
2023/08/04 08:47:46;;;;;;;2.50;1.33;;;18.40;99.90;;;;;;4974475;28;20267;-68
2023/08/04 08:50:17;;;;;;;3.03;1.30;;;18.40;99.90;;;;;;4992610;28;20207;-68
2023/08/04 08:52:50;;;;;;;2.27;1.40;;;18.50;99.90;;;;;;4990044;28;20211;-68
2023/08/04 08:55:18;;;;;;;2.00;1.63;;;18.50;99.90;;;;;;5000963;28;20224;-68
2023/08/04 08:57:45;;;;;;;4.63;1.80;;;18.50;99.90;;;;;;4975386;28;21908;-67
2023/08/04 09:00:14;;;;;;;4.20;2.17;;;18.50;99.90;;;;;;4992562;28;20221;-67
2023/08/04 09:02:41;;;;;;;3.60;1.43;;;18.50;99.90;;;;;;4991989;28;20208;-67
2023/08/04 09:05:09;;;;;;;2.20;1.40;;;18.50;99.90;;;;;;4995717;28;20217;-67
2023/08/04 09:07:37;;;;;;;2.63;1.70;;;18.50;99.90;;;;;;4989701;28;20665;-67
2023/08/04 09:10:05;;;;;;;1.70;1.20;;;18.60;99.90;;;;;;4995986;28;20252;-67
2023/08/04 09:12:32;;;;;;;1.53;0.90;;;18.80;99.90;;;;;;4979971;28;20702;-69
2023/08/04 09:15:01;;;;;;;1.87;0.97;;;18.80;99.90;;;;;;4999795;28;20699;-68
2023/08/04 09:17:33;;;;;;;4.40;0.90;;;18.70;99.90;;;;;;4995185;28;20212;-68
2023/08/04 09:20:01;;;;;;;1.03;0.93;;;18.80;99.90;;;;;;5001705;28;20246;-68
2023/08/04 09:22:28;;;;;;;2.63;0.90;;;18.80;99.90;;;;;;5004654;28;20275;-67
2023/08/04 09:24:59;;;;;;;1.80;0.90;;;18.90;99.90;;;;;;4987551;28;20908;-68
2023/08/04 09:27:33;;;;;;;3.50;0.80;;;18.90;99.90;;;;;;4998360;28;20264;-68
2023/08/04 09:30:01;;;;;;;3.10;1.17;;;18.80;99.90;;;;;;4994775;28;20197;-68
2023/08/04 09:32:30;;;;;;;2.13;1.10;;;18.90;99.90;;;;;;4991630;28;20211;-68
2023/08/04 09:35:01;;;;;;;0.63;0.63;;;18.90;99.90;;;;;;4992548;28;20306;-68
2023/08/04 09:37:28;;;;;;;1.60;0.80;;;18.90;99.90;;;;;;4998502;28;20201;-68
2023/08/04 09:39:56;;;;;;;1.73;0.87;;;18.90;99.90;;;;;;4997942;28;21021;-68
2023/08/04 09:42:23;;;;;;;2.20;1.10;;;19.00;99.90;;;;;;5000585;28;20669;-68
2023/08/04 09:44:52;;;;;;;2.50;1.00;;;19.20;99.90;;;;;;4985403;28;20255;-68
2023/08/04 09:47:22;;;;;;;4.63;1.07;;;19.30;99.90;;;;;;4990981;28;20216;-68
2023/08/04 09:49:49;;;;;;;3.37;1.20;;;19.40;99.90;;;;;;4994522;28;20209;-67
2023/08/04 09:52:21;;;;;;;0.97;0.70;;;19.40;99.90;;;;;;5002346;28;20193;-67
2023/08/04 09:54:48;;;;;;;2.27;1.00;;;19.40;99.90;;;;;;4984248;28;20307;-68
2023/08/04 09:57:16;;;;;;;2.10;1.27;;;19.50;99.90;;;;;;5001169;28;20594;-67
2023/08/04 09:59:43;;;;;;;3.60;1.10;;;19.40;99.90;;;;;;4981112;28;20212;-67
2023/08/04 10:02:12;;;;;;;1.95;1.00;;;19.40;99.90;;;;;;4969836;28;20231;-68
2023/08/04 10:04:43;;;;;;;1.55;1.00;;;19.40;99.90;;;;;;4993106;28;20249;-68
2023/08/04 10:07:10;;;;;;;4.60;1.35;;;19.40;99.90;;;;;;4995269;28;20219;-67
2023/08/04 10:09:37;;;;;;;1.90;1.10;;;19.50;99.90;;;;;;4997234;28;20263;-68
2023/08/04 10:12:06;;;;;;;3.20;0.90;;;19.40;99.90;;;;;;4988243;28;20212;-68
2023/08/04 10:14:34;;;;;;;1.70;1.00;;;19.40;99.90;;;;;;4970700;28;20668;-68
2023/08/04 10:17:02;;;;;;;1.53;0.70;;;19.30;99.90;;;;;;4991959;28;20220;-68
2023/08/04 10:19:29;;;;;;;2.80;1.07;;;19.20;99.90;;;;;;4990133;28;20250;-68
2023/08/04 10:22:04;;;;;;;2.17;1.40;;;19.10;99.90;;;;;;4992427;28;20771;-68
2023/08/04 10:24:34;;;;;;;1.50;0.90;;;19.00;99.90;;;;;;4995202;28;20402;-67
2023/08/04 10:27:04;;;;;;;1.63;1.50;;;19.00;99.90;;;;;;4994762;28;20208;-68
2023/08/04 10:29:33;;;;;;;1.80;1.03;;;18.90;99.90;;;;;;4991913;28;20247;-67
2023/08/04 10:32:03;;;;;;;1.13;1.03;;;19.00;99.90;;;;;;4976585;28;20247;-68
2023/08/04 10:34:31;;;;;;;2.63;1.03;;;19.00;99.90;;;;;;4988522;28;20232;-68
2023/08/04 10:37:04;;;;;;;1.30;0.90;;;18.90;99.90;;;;;;4992701;28;20205;-68
2023/08/04 10:39:33;;;;;;;1.07;0.80;;;18.90;99.90;;;;;;5001567;28;20669;-68
2023/08/04 10:42:01;;;;;;;3.63;0.97;;;19.00;99.90;;;;;;4993922;28;20262;-68
2023/08/04 10:44:31;;;;;;;2.17;1.03;;;19.10;99.90;;;;;;5000836;28;20570;-68
2023/08/04 10:47:04;;;;;;;1.93;1.30;;;19.20;99.90;;;;;;4977602;28;20295;-68
2023/08/04 10:49:32;;;;;;;2.67;1.50;;;19.40;99.90;;;;;;4980849;28;20427;-68
2023/08/04 10:51:59;;;;;;;1.57;1.10;;;19.50;99.90;;;;;;4989362;28;20205;-68
2023/08/04 10:54:27;;;;;;;2.67;1.17;;;19.70;99.90;;;;;;4988514;28;20692;-68
2023/08/04 10:56:54;;;;;;;2.40;1.20;;;19.70;99.90;;;;;;4997144;28;20205;-68
2023/08/04 10:59:21;;;;;;;2.13;1.33;;;19.80;99.90;;;;;;4997198;28;20184;-68
2023/08/04 11:01:48;;;;;;;1.83;1.10;;;20.00;99.90;;;;;;4979554;28;20224;-68
2023/08/04 11:04:17;;;;;;;1.23;1.13;;;20.00;99.90;;;;;;4996047;28;20217;-68
2023/08/04 11:06:45;;;;;;;1.00;0.90;;;19.90;99.90;;;;;;4987099;28;20284;-68
2023/08/04 11:09:12;;;;;;;3.30;0.97;;;19.90;99.90;;;;;;4986141;28;20216;-68
2023/08/04 11:11:39;;;;;;;1.38;1.08;;;20.00;99.90;;;;;;4992743;28;20307;-68
2023/08/04 11:14:07;;;;;;;1.55;0.98;;;19.90;99.90;;;;;;4998125;28;20204;-69
2023/08/04 11:16:36;;;;;;;3.78;1.20;;;20.00;99.90;;;;;;4978805;28;20766;-68
2023/08/04 11:19:05;;;;;;;3.17;1.05;;;20.10;99.90;;;;;;4995238;28;20197;-68
2023/08/04 11:21:33;;;;;;;1.52;1.40;;;20.10;99.90;;;;;;4984531;28;20224;-68
2023/08/04 11:24:00;;;;;;;2.65;1.20;;;20.10;99.90;;;;;;4990143;28;20912;-69
2023/08/04 11:26:29;;;;;;;1.83;0.95;;;20.20;99.90;;;;;;4999632;28;20189;-68
2023/08/04 11:28:59;;;;;;;2.55;1.10;;;20.30;99.90;;;;;;4994084;28;20207;-69
2023/08/04 11:31:27;;;;;;;1.83;1.10;;;20.40;99.90;;;;;;4984085;28;20280;-69
2023/08/04 11:33:53;;;;;;;1.50;1.10;;;20.50;99.90;;;;;;4993012;28;20628;-69
2023/08/04 11:36:20;;;;;;;0.98;0.88;;;20.70;99.90;;;;;;4987938;28;20214;-68
2023/08/04 11:38:48;;;;;;;1.60;1.00;;;20.70;99.90;;;;;;5002332;28;20248;-69
2023/08/04 11:41:16;;;;;;;2.42;1.23;;;20.50;99.90;;;;;;4998774;28;20216;-69
2023/08/04 11:43:45;;;;;;;2.33;1.15;;;20.10;99.90;;;;;;5002790;28;20203;-69
2023/08/04 11:46:11;;;;;;;2.75;1.35;;;20.00;99.90;;;;;;4980370;28;21045;-69
2023/08/04 11:48:39;;;;;;;2.63;1.17;;;19.80;99.90;;;;;;4995675;28;20661;-68
2023/08/04 11:51:08;;;;;;;2.22;1.20;;;19.70;99.90;;;;;;4998714;28;20193;-69
2023/08/04 11:53:37;;;;;;;1.17;0.93;;;19.60;99.90;;;;;;4995777;28;20208;-68
2023/08/04 11:56:07;;;;;;;2.42;1.38;;;19.50;99.90;;;;;;4992620;28;20831;-69
2023/08/04 11:58:36;;;;;;;4.57;1.25;;;19.50;99.90;;;;;;5000015;28;20200;-69
2023/08/04 12:01:04;;;;;;;3.55;1.20;;;19.40;99.90;;;;;;4990628;28;20219;-69
2023/08/04 12:03:45;;;;;;;1.92;1.40;;;19.50;99.90;;;;;;4978092;28;20205;-68
2023/08/04 12:06:16;;;;;;;0.90;0.80;;;19.50;99.90;;;;;;4995638;28;20216;-69
2023/08/04 12:08:51;;;;;;;1.95;1.17;;;19.50;99.90;;;;;;4985542;28;20276;-68
2023/08/04 12:11:20;;;;;;;3.20;1.10;;;19.50;99.90;;;;;;4988074;28;20188;-68
2023/08/04 12:13:47;;;;;;;1.48;1.30;;;19.50;99.90;;;;;;4993698;28;20740;-69
2023/08/04 12:16:14;;;;;;;1.40;1.30;;;19.60;99.90;;;;;;4993366;28;20275;-68
2023/08/04 12:18:41;;;;;;;2.42;1.23;;;19.60;99.90;;;;;;4982304;28;20212;-68
2023/08/04 12:21:10;;;;;;;4.90;1.30;;;19.60;99.90;;;;;;4995069;28;20217;-69
2023/08/04 12:23:37;;;;;;;1.63;1.00;;;19.50;99.90;;;;;;4985464;28;20525;-68
2023/08/04 12:26:03;;;;;;;1.98;1.00;;;19.40;99.90;;;;;;4985012;28;20633;-69
2023/08/04 12:28:31;;;;;;;2.53;1.13;;;19.30;99.90;;;;;;4999406;28;20251;-68
2023/08/04 12:30:58;;;;;;;2.25;0.95;;;19.30;99.90;;;;;;4995508;28;20209;-69
2023/08/04 12:33:25;;;;;;;1.52;0.80;;;19.30;99.90;;;;;;5002141;28;20478;-68
2023/08/04 12:35:52;;;;;;;3.60;1.00;;;19.50;99.90;;;;;;4971192;28;20233;-68
2023/08/04 12:38:19;;;;;;;3.92;1.15;;;19.70;99.90;;;;;;4982986;28;20189;-68
2023/08/04 12:40:48;;;;;;;2.07;1.10;;;20.00;99.90;;;;;;4987608;28;20262;-68
2023/08/04 12:43:15;;;;;;;2.13;1.10;;;20.30;99.90;;;;;;4996664;28;20192;-68
2023/08/04 12:45:43;;;;;;;3.90;0.85;;;20.50;99.90;;;;;;5001960;28;20213;-68
2023/08/04 12:48:09;;;;;;;0.82;0.75;;;20.70;99.90;;;;;;4993455;28;20188;-68